Howardwick, Texas
Current Conditions -  °F | °C
As of 6:55 AM on Sunday 28 Dec 2014 (Local Time) from KPPA Reporting Station
Clear Clear  
Wind Chill:   Ceiling: Unl
Heat Index: 17°   Visibility: 10mi
Dew Point: 12°   Wind: 8mph
Humidity: 81%   Direction: 190°S
Pressure: 30.1"   Gusts: NA
Location:  35.0052°N, 100.866°W
Report Text: KPPA 281255Z AUTO 19007KT 10SM CLR M08/M11 A3010 RMK AO2 T10851113 PNO
Loading
Personal Weather Stations






























Interactive Weather Map New forecast layout! Learn more

10-Day Weather Forecast

Advertisements
Track Severe Weather on mobile